sensor_id;sensor_type;location;lat;lon;timestamp;pressure;altitude;pressure_sealevel;temperature;humidity
80116;BME280;69423;47.608;19.366;2024-02-16T00:00:08;99665.81;;;6.09;91.26
80116;BME280;69423;47.608;19.366;2024-02-16T00:00:41;99662.88;;;6.12;90.67
80116;BME280;69423;47.608;19.366;2024-02-16T00:01:15;99664.69;;;6.12;91.02
80116;BME280;69423;47.608;19.366;2024-02-16T00:01:46;99657.16;;;6.07;91.02
80116;BME280;69423;47.608;19.366;2024-02-16T00:02:17;99664.81;;;6.10;90.77
80116;BME280;69423;47.608;19.366;2024-02-16T00:02:48;99660.38;;;6.11;90.73
80116;BME280;69423;47.608;19.366;2024-02-16T00:03:19;99659.28;;;6.13;90.65
80116;BME280;69423;47.608;19.366;2024-02-16T00:03:51;99662.63;;;6.15;90.09
80116;BME280;69423;47.608;19.366;2024-02-16T00:04:22;99662.31;;;6.18;89.94
80116;BME280;69423;47.608;19.366;2024-02-16T00:04:53;99666.66;;;6.19;89.74
80116;BME280;69423;47.608;19.366;2024-02-16T00:05:24;99669.19;;;6.21;89.87
80116;BME280;69423;47.608;19.366;2024-02-16T00:05:55;99661.38;;;6.19;89.91
80116;BME280;69423;47.608;19.366;2024-02-16T00:06:26;99661.50;;;6.18;90.00
80116;BME280;69423;47.608;19.366;2024-02-16T00:06:57;99659.97;;;6.15;90.05
80116;BME280;69423;47.608;19.366;2024-02-16T00:07:28;99659.84;;;6.17;89.74
80116;BME280;69423;47.608;19.366;2024-02-16T00:07:59;99663.31;;;6.17;89.69
80116;BME280;69423;47.608;19.366;2024-02-16T00:08:32;99662.91;;;6.22;89.24
80116;BME280;69423;47.608;19.366;2024-02-16T00:09:05;99662.31;;;6.18;89.64
80116;BME280;69423;47.608;19.366;2024-02-16T00:09:36;99652.16;;;6.14;89.51
80116;BME280;69423;47.608;19.366;2024-02-16T00:10:08;99652.97;;;6.14;89.48
80116;BME280;69423;47.608;19.366;2024-02-16T00:10:43;99660.94;;;6.14;89.81
80116;BME280;69423;47.608;19.366;2024-02-16T00:11:14;99653.16;;;6.13;89.50
80116;BME280;69423;47.608;19.366;2024-02-16T00:11:45;99656.88;;;6.10;90.01
80116;BME280;69423;47.608;19.366;2024-02-16T00:12:16;99654.09;;;6.12;89.57
80116;BME280;69423;47.608;19.366;2024-02-16T00:12:47;99656.63;;;6.13;89.52
80116;BME280;69423;47.608;19.366;2024-02-16T00:13:18;99657.31;;;6.15;89.97
80116;BME280;69423;47.608;19.366;2024-02-16T00:13:49;99654.81;;;6.14;90.16
80116;BME280;69423;47.608;19.366;2024-02-16T00:14:20;99655.50;;;6.16;89.28
80116;BME280;69423;47.608;19.366;2024-02-16T00:14:51;99658.28;;;6.14;89.49
80116;BME280;69423;47.608;19.366;2024-02-16T00:15:22;99659.56;;;6.20;89.67
80116;BME280;69423;47.608;19.366;2024-02-16T00:15:54;99665.84;;;6.19;89.73
80116;BME280;69423;47.608;19.366;2024-02-16T00:16:25;99657.31;;;6.15;89.25
80116;BME280;69423;47.608;19.366;2024-02-16T00:16:56;99656.50;;;6.15;89.20
80116;BME280;69423;47.608;19.366;2024-02-16T00:17:27;99661.63;;;6.16;89.40
80116;BME280;69423;47.608;19.366;2024-02-16T00:17:58;99656.06;;;6.19;88.76
80116;BME280;69423;47.608;19.366;2024-02-16T00:18:29;99661.25;;;6.21;88.80
80116;BME280;69423;47.608;19.366;2024-02-16T00:19:00;99656.47;;;6.24;88.54
80116;BME280;69423;47.608;19.366;2024-02-16T00:19:31;99654.00;;;6.23;88.96
80116;BME280;69423;47.608;19.366;2024-02-16T00:20:03;99656.47;;;6.24;88.80
80116;BME280;69423;47.608;19.366;2024-02-16T00:20:34;99659.81;;;6.26;89.13
80116;BME280;69423;47.608;19.366;2024-02-16T00:21:05;99661.34;;;6.29;88.62
80116;BME280;69423;47.608;19.366;2024-02-16T00:21:36;99664.00;;;6.29;88.47
80116;BME280;69423;47.608;19.366;2024-02-16T00:22:07;99658.16;;;6.25;88.42
80116;BME280;69423;47.608;19.366;2024-02-16T00:22:38;99659.13;;;6.24;88.34
80116;BME280;69423;47.608;19.366;2024-02-16T00:23:09;99652.31;;;6.22;88.64
80116;BME280;69423;47.608;19.366;2024-02-16T00:23:41;99653.41;;;6.19;89.10
80116;BME280;69423;47.608;19.366;2024-02-16T00:24:12;99654.38;;;6.18;89.34
80116;BME280;69423;47.608;19.366;2024-02-16T00:24:43;99664.44;;;6.24;88.17
80116;BME280;69423;47.608;19.366;2024-02-16T00:25:14;99651.19;;;6.24;88.08
80116;BME280;69423;47.608;19.366;2024-02-16T00:25:46;99653.13;;;6.22;88.53
80116;BME280;69423;47.608;19.366;2024-02-16T00:26:17;99653.28;;;6.21;88.57
80116;BME280;69423;47.608;19.366;2024-02-16T00:26:48;99655.94;;;6.21;88.17
80116;BME280;69423;47.608;19.366;2024-02-16T00:27:20;99654.13;;;6.21;88.12
80116;BME280;69423;47.608;19.366;2024-02-16T00:27:51;99654.13;;;6.21;88.32
80116;BME280;69423;47.608;19.366;2024-02-16T00:28:23;99655.94;;;6.21;88.47
80116;BME280;69423;47.608;19.366;2024-02-16T00:28:54;99652.44;;;6.20;88.88
80116;BME280;69423;47.608;19.366;2024-02-16T00:29:26;99654.13;;;6.21;88.70
80116;BME280;69423;47.608;19.366;2024-02-16T00:29:57;99655.09;;;6.20;88.64
80116;BME280;69423;47.608;19.366;2024-02-16T00:30:28;99649.78;;;6.20;89.27
80116;BME280;69423;47.608;19.366;2024-02-16T00:30:59;99653.84;;;6.24;89.04
80116;BME280;69423;47.608;19.366;2024-02-16T00:31:30;99656.78;;;6.21;89.18
80116;BME280;69423;47.608;19.366;2024-02-16T00:32:01;99660.38;;;6.20;88.86
80116;BME280;69423;47.608;19.366;2024-02-16T00:32:34;99652.72;;;6.17;89.06
80116;BME280;69423;47.608;19.366;2024-02-16T00:33:05;99656.91;;;6.20;88.62
80116;BME280;69423;47.608;19.366;2024-02-16T00:33:36;99652.72;;;6.17;89.19
80116;BME280;69423;47.608;19.366;2024-02-16T00:34:07;99651.03;;;6.16;89.27
80116;BME280;69423;47.608;19.366;2024-02-16T00:34:38;99640.31;;;6.18;89.18
80116;BME280;69423;47.608;19.366;2024-02-16T00:35:10;99650.06;;;6.17;89.48
80116;BME280;69423;47.608;19.366;2024-02-16T00:35:42;99654.66;;;6.15;89.16
80116;BME280;69423;47.608;19.366;2024-02-16T00:36:13;99651.03;;;6.16;89.48
80116;BME280;69423;47.608;19.366;2024-02-16T00:36:44;99650.06;;;6.17;89.40
80116;BME280;69423;47.608;19.366;2024-02-16T00:37:15;99652.72;;;6.17;89.54
80116;BME280;69423;47.608;19.366;2024-02-16T00:37:46;99649.09;;;6.18;89.31
80116;BME280;69423;47.608;19.366;2024-02-16T00:38:17;99653.41;;;6.19;88.99
80116;BME280;69423;47.608;19.366;2024-02-16T00:38:48;99651.72;;;6.18;88.73
80116;BME280;69423;47.608;19.366;2024-02-16T00:39:19;99644.78;;;6.17;88.70
80116;BME280;69423;47.608;19.366;2024-02-16T00:39:50;99641.44;;;6.15;88.29
80116;BME280;69423;47.608;19.366;2024-02-16T00:40:23;99640.44;;;6.16;88.76
80116;BME280;69423;47.608;19.366;2024-02-16T00:40:54;99646.44;;;6.18;89.18
80116;BME280;69423;47.608;19.366;2024-02-16T00:41:25;99648.13;;;6.19;88.71
80116;BME280;69423;47.608;19.366;2024-02-16T00:41:56;99645.34;;;6.21;89.32
80116;BME280;69423;47.608;19.366;2024-02-16T00:42:27;99646.59;;;6.17;88.70
80116;BME280;69423;47.608;19.366;2024-02-16T00:43:01;99643.09;;;6.16;88.67
80116;BME280;69423;47.608;19.366;2024-02-16T00:43:32;99650.91;;;6.18;88.46
80116;BME280;69423;47.608;19.366;2024-02-16T00:44:03;99645.75;;;6.16;88.41
80116;BME280;69423;47.608;19.366;2024-02-16T00:44:34;99648.13;;;6.19;88.50
80116;BME280;69423;47.608;19.366;2024-02-16T00:45:06;99642.00;;;6.19;89.20
80116;BME280;69423;47.608;19.366;2024-02-16T00:45:38;99646.44;;;6.18;89.16
80116;BME280;69423;47.608;19.366;2024-02-16T00:46:09;99648.53;;;6.15;88.52
80116;BME280;69423;47.608;19.366;2024-02-16T00:46:40;99639.63;;;6.16;88.42
80116;BME280;69423;47.608;19.366;2024-02-16T00:47:11;99639.75;;;6.14;89.19
80116;BME280;69423;47.608;19.366;2024-02-16T00:47:42;99650.22;;;6.16;89.17
80116;BME280;69423;47.608;19.366;2024-02-16T00:48:15;99644.09;;;6.15;89.43
80116;BME280;69423;47.608;19.366;2024-02-16T00:48:46;99640.44;;;6.16;89.15
80116;BME280;69423;47.608;19.366;2024-02-16T00:49:17;99646.59;;;6.17;89.37
80116;BME280;69423;47.608;19.366;2024-02-16T00:49:49;99651.03;;;6.16;89.43
80116;BME280;69423;47.608;19.366;2024-02-16T00:50:20;99644.78;;;6.17;89.39
80116;BME280;69423;47.608;19.366;2024-02-16T00:50:51;99648.25;;;6.18;89.03
80116;BME280;69423;47.608;19.366;2024-02-16T00:51:22;99642.13;;;6.17;89.20
80116;BME280;69423;47.608;19.366;2024-02-16T00:51:54;99645.47;;;6.19;89.13
80116;BME280;69423;47.608;19.366;2024-02-16T00:52:25;99643.94;;;6.17;88.45
80116;BME280;69423;47.608;19.366;2024-02-16T00:52:56;99642.13;;;6.17;88.92
80116;BME280;69423;47.608;19.366;2024-02-16T00:53:27;99648.38;;;6.16;89.09
80116;BME280;69423;47.608;19.366;2024-02-16T00:53:58;99646.84;;;6.14;89.24
80116;BME280;69423;47.608;19.366;2024-02-16T00:54:29;99641.69;;;6.12;89.21
80116;BME280;69423;47.608;19.366;2024-02-16T00:55:00;99638.63;;;6.07;89.46
80116;BME280;69423;47.608;19.366;2024-02-16T00:55:31;99646.16;;;6.12;89.22
80116;BME280;69423;47.608;19.366;2024-02-16T00:56:03;99638.34;;;6.10;89.45
80116;BME280;69423;47.608;19.366;2024-02-16T00:56:34;99649.47;;;6.04;89.49
80116;BME280;69423;47.608;19.366;2024-02-16T00:57:05;99642.53;;;6.03;89.74
80116;BME280;69423;47.608;19.366;2024-02-16T00:57:36;99644.19;;;6.04;90.14
80116;BME280;69423;47.608;19.366;2024-02-16T00:58:07;99637.50;;;6.00;89.74
80116;BME280;69423;47.608;19.366;2024-02-16T00:58:41;99643.91;;;5.97;90.21
80116;BME280;69423;47.608;19.366;2024-02-16T00:59:13;99652.41;;;6.01;89.71
80116;BME280;69423;47.608;19.366;2024-02-16T00:59:44;99653.94;;;6.03;90.41
80116;BME280;69423;47.608;19.366;2024-02-16T01:00:15;99642.53;;;6.03;89.93
80116;BME280;69423;47.608;19.366;2024-02-16T01:00:46;99647.81;;;6.03;89.98
80116;BME280;69423;47.608;19.366;2024-02-16T01:01:17;99643.66;;;6.00;89.94
80116;BME280;69423;47.608;19.366;2024-02-16T01:01:48;99648.94;;;6.00;89.71
80116;BME280;69423;47.608;19.366;2024-02-16T01:02:20;99648.06;;;6.00;89.86
80116;BME280;69423;47.608;19.366;2024-02-16T01:02:51;99651.59;;;6.00;90.13
80116;BME280;69423;47.608;19.366;2024-02-16T01:03:23;99645.31;;;6.01;89.75
80116;BME280;69423;47.608;19.366;2024-02-16T01:03:54;99647.00;;;6.02;89.85
80116;BME280;69423;47.608;19.366;2024-02-16T01:04:25;99647.81;;;6.03;89.88
80116;BME280;69423;47.608;19.366;2024-02-16T01:04:56;99646.13;;;6.02;89.97
80116;BME280;69423;47.608;19.366;2024-02-16T01:05:32;99655.75;;;6.03;90.04
80116;BME280;69423;47.608;19.366;2024-02-16T01:06:04;99652.41;;;6.01;89.35
80116;BME280;69423;47.608;19.366;2024-02-16T01:06:36;99650.72;;;6.00;89.27
80116;BME280;69423;47.608;19.366;2024-02-16T01:07:07;99656.88;;;6.00;89.70
80116;BME280;69423;47.608;19.366;2024-02-16T01:07:38;99651.44;;;6.02;89.49
80116;BME280;69423;47.608;19.366;2024-02-16T01:08:10;99651.13;;;5.95;89.95
80116;BME280;69423;47.608;19.366;2024-02-16T01:08:41;99652.97;;;5.95;89.78
80116;BME280;69423;47.608;19.366;2024-02-16T01:09:13;99650.88;;;5.98;89.79
80116;BME280;69423;47.608;19.366;2024-02-16T01:09:44;99655.06;;;6.01;89.82
80116;BME280;69423;47.608;19.366;2024-02-16T01:10:15;99651.44;;;6.02;89.68
80116;BME280;69423;47.608;19.366;2024-02-16T01:10:46;99646.13;;;6.02;89.63
80116;BME280;69423;47.608;19.366;2024-02-16T01:11:17;99644.28;;;5.93;90.01
80116;BME280;69423;47.608;19.366;2024-02-16T01:11:50;99649.44;;;5.94;90.24
80116;BME280;69423;47.608;19.366;2024-02-16T01:12:21;99646.34;;;5.89;90.08
80116;BME280;69423;47.608;19.366;2024-02-16T01:12:52;99643.00;;;5.87;90.27
80116;BME280;69423;47.608;19.366;2024-02-16T01:13:23;99650.25;;;5.85;90.85
80116;BME280;69423;47.608;19.366;2024-02-16T01:13:54;99645.25;;;5.82;90.70
80116;BME280;69423;47.608;19.366;2024-02-16T01:14:25;99653.31;;;5.80;91.15
80116;BME280;69423;47.608;19.366;2024-02-16T01:14:56;99642.72;;;5.80;91.24
80116;BME280;69423;47.608;19.366;2024-02-16T01:15:27;99650.41;;;5.83;91.08
80116;BME280;69423;47.608;19.366;2024-02-16T01:15:58;99642.47;;;5.83;91.34
80116;BME280;69423;47.608;19.366;2024-02-16T01:16:29;99640.38;;;5.87;90.96
80116;BME280;69423;47.608;19.366;2024-02-16T01:17:00;99649.88;;;5.90;90.97
80116;BME280;69423;47.608;19.366;2024-02-16T01:17:31;99647.34;;;5.88;91.40
80116;BME280;69423;47.608;19.366;2024-02-16T01:18:05;99643.88;;;5.87;91.29
80116;BME280;69423;47.608;19.366;2024-02-16T01:18:36;99653.34;;;5.90;91.62
80116;BME280;69423;47.608;19.366;2024-02-16T01:19:08;99649.72;;;5.91;91.44
80116;BME280;69423;47.608;19.366;2024-02-16T01:19:40;99648.19;;;5.88;91.31
80116;BME280;69423;47.608;19.366;2024-02-16T01:20:11;99639.41;;;5.88;91.26
80116;BME280;69423;47.608;19.366;2024-02-16T01:20:43;99646.34;;;5.89;91.59
80116;BME280;69423;47.608;19.366;2024-02-16T01:21:14;99645.81;;;5.85;91.45
80116;BME280;69423;47.608;19.366;2024-02-16T01:21:45;99639.53;;;5.86;91.38
80116;BME280;69423;47.608;19.366;2024-02-16T01:22:18;99636.06;;;5.86;91.46
80116;BME280;69423;47.608;19.366;2024-02-16T01:22:49;99637.72;;;5.77;91.88
80116;BME280;69423;47.608;19.366;2024-02-16T01:23:20;99636.31;;;5.73;91.88
80116;BME280;69423;47.608;19.366;2024-02-16T01:23:51;99636.84;;;5.77;91.70
80116;BME280;69423;47.608;19.366;2024-02-16T01:24:23;99631.03;;;5.73;91.91
80116;BME280;69423;47.608;19.366;2024-02-16T01:24:54;99637.13;;;5.74;92.68
80116;BME280;69423;47.608;19.366;2024-02-16T01:25:25;99638.09;;;5.73;92.18
80116;BME280;69423;47.608;19.366;2024-02-16T01:25:56;99637.69;;;5.67;92.06
80116;BME280;69423;47.608;19.366;2024-02-16T01:26:27;99647.03;;;5.72;92.00
80116;BME280;69423;47.608;19.366;2024-02-16T01:26:59;99648.28;;;5.77;92.16
80116;BME280;69423;47.608;19.366;2024-02-16T01:27:30;99640.75;;;5.73;92.01
80116;BME280;69423;47.608;19.366;2024-02-16T01:28:01;99639.50;;;5.77;91.87
80116;BME280;69423;47.608;19.366;2024-02-16T01:28:32;99650.94;;;5.77;91.97
80116;BME280;69423;47.608;19.366;2024-02-16T01:29:03;99642.13;;;5.67;92.03
80116;BME280;69423;47.608;19.366;2024-02-16T01:29:34;99644.91;;;5.65;92.67
80116;BME280;69423;47.608;19.366;2024-02-16T01:30:05;99642.13;;;5.67;92.27
80116;BME280;69423;47.608;19.366;2024-02-16T01:30:36;99631.81;;;5.64;92.75
80116;BME280;69423;47.608;19.366;2024-02-16T01:31:09;99636.28;;;5.63;92.44
80116;BME280;69423;47.608;19.366;2024-02-16T01:31:40;99642.56;;;5.72;92.38
80116;BME280;69423;47.608;19.366;2024-02-16T01:32:11;99639.66;;;5.75;92.05
80116;BME280;69423;47.608;19.366;2024-02-16T01:32:44;99643.53;;;5.71;92.05
80116;BME280;69423;47.608;19.366;2024-02-16T01:33:15;99643.81;;;5.68;92.18
80116;BME280;69423;47.608;19.366;2024-02-16T01:33:46;99633.66;;;5.73;92.29
80116;BME280;69423;47.608;19.366;2024-02-16T01:34:17;99639.09;;;5.72;92.03
80116;BME280;69423;47.608;19.366;2024-02-16T01:34:48;99635.44;;;5.73;91.92
80116;BME280;69423;47.608;19.366;2024-02-16T01:35:20;99640.75;;;5.73;92.02
80116;BME280;69423;47.608;19.366;2024-02-16T01:35:51;99643.84;;;5.78;92.04
80116;BME280;69423;47.608;19.366;2024-02-16T01:36:22;99637.72;;;5.77;91.56
80116;BME280;69423;47.608;19.366;2024-02-16T01:36:53;99638.66;;;5.76;91.93
80116;BME280;69423;47.608;19.366;2024-02-16T01:37:24;99637.84;;;5.76;92.09
80116;BME280;69423;47.608;19.366;2024-02-16T01:37:55;99643.84;;;5.78;91.86
80116;BME280;69423;47.608;19.366;2024-02-16T01:38:26;99645.66;;;5.77;92.45
80116;BME280;69423;47.608;19.366;2024-02-16T01:38:57;99647.03;;;5.72;92.21
80116;BME280;69423;47.608;19.366;2024-02-16T01:39:28;99636.56;;;5.70;92.11
80116;BME280;69423;47.608;19.366;2024-02-16T01:39:59;99632.50;;;5.66;92.65
80116;BME280;69423;47.608;19.366;2024-02-16T01:40:31;99643.50;;;5.61;92.91
80116;BME280;69423;47.608;19.366;2024-02-16T01:41:02;99637.63;;;5.58;92.62
80116;BME280;69423;47.608;19.366;2024-02-16T01:41:33;99639.75;;;5.64;92.70
80116;BME280;69423;47.608;19.366;2024-02-16T01:42:04;99634.03;;;5.68;93.10
80116;BME280;69423;47.608;19.366;2024-02-16T01:42:35;99634.91;;;5.69;92.90
80116;BME280;69423;47.608;19.366;2024-02-16T01:43:06;99638.50;;;5.68;92.86
80116;BME280;69423;47.608;19.366;2024-02-16T01:43:37;99640.19;;;5.69;92.71
80116;BME280;69423;47.608;19.366;2024-02-16T01:44:08;99632.97;;;5.71;92.28
80116;BME280;69423;47.608;19.366;2024-02-16T01:44:40;99633.09;;;5.70;92.64
80116;BME280;69423;47.608;19.366;2024-02-16T01:45:11;99635.84;;;5.68;92.29
80116;BME280;69423;47.608;19.366;2024-02-16T01:45:43;99636.28;;;5.63;92.40
80116;BME280;69423;47.608;19.366;2024-02-16T01:46:14;99642.25;;;5.65;92.18
80116;BME280;69423;47.608;19.366;2024-02-16T01:46:45;99639.63;;;5.65;92.59
80116;BME280;69423;47.608;19.366;2024-02-16T01:47:16;99639.63;;;5.65;91.93
80116;BME280;69423;47.608;19.366;2024-02-16T01:47:50;99638.50;;;5.68;92.90
80116;BME280;69423;47.608;19.366;2024-02-16T01:48:21;99637.41;;;5.71;92.63
80116;BME280;69423;47.608;19.366;2024-02-16T01:48:52;99631.97;;;5.72;92.63
80116;BME280;69423;47.608;19.366;2024-02-16T01:49:25;99631.97;;;5.72;92.01
80116;BME280;69423;47.608;19.366;2024-02-16T01:49:56;99631.03;;;5.73;92.00
80116;BME280;69423;47.608;19.366;2024-02-16T01:50:27;99636.56;;;5.70;92.47
80116;BME280;69423;47.608;19.366;2024-02-16T01:51:00;99629.31;;;5.72;92.63
80116;BME280;69423;47.608;19.366;2024-02-16T01:51:32;99633.50;;;5.75;92.52
80116;BME280;69423;47.608;19.366;2024-02-16T01:52:05;99631.03;;;5.73;92.59
80116;BME280;69423;47.608;19.366;2024-02-16T01:52:36;99630.31;;;5.71;92.67
80116;BME280;69423;47.608;19.366;2024-02-16T01:53:08;99630.03;;;5.74;92.34
80116;BME280;69423;47.608;19.366;2024-02-16T01:53:40;99624.75;;;5.74;92.67
80116;BME280;69423;47.608;19.366;2024-02-16T01:54:11;99623.78;;;5.75;92.22
80116;BME280;69423;47.608;19.366;2024-02-16T01:54:42;99631.72;;;5.75;92.69
80116;BME280;69423;47.608;19.366;2024-02-16T01:55:14;99623.78;;;5.75;92.20
80116;BME280;69423;47.608;19.366;2024-02-16T01:55:46;99627.50;;;5.73;92.99
80116;BME280;69423;47.608;19.366;2024-02-16T01:56:18;99634.38;;;5.75;92.97
80116;BME280;69423;47.608;19.366;2024-02-16T01:56:51;99624.75;;;5.74;93.17
80116;BME280;69423;47.608;19.366;2024-02-16T01:57:22;99615.94;;;5.64;93.11
80116;BME280;69423;47.608;19.366;2024-02-16T01:57:54;99618.31;;;5.67;92.60
80116;BME280;69423;47.608;19.366;2024-02-16T01:58:25;99626.97;;;5.69;92.64
80116;BME280;69423;47.608;19.366;2024-02-16T01:58:57;99620.97;;;5.67;92.72
80116;BME280;69423;47.608;19.366;2024-02-16T01:59:29;99627.66;;;5.71;93.24
80116;BME280;69423;47.608;19.366;2024-02-16T02:00:00;99619.28;;;5.66;93.00
80116;BME280;69423;47.608;19.366;2024-02-16T02:00:31;99619.56;;;5.63;92.82
80116;BME280;69423;47.608;19.366;2024-02-16T02:01:02;99625.13;;;5.60;93.31
80116;BME280;69423;47.608;19.366;2024-02-16T02:01:33;99625.13;;;5.60;92.93
80116;BME280;69423;47.608;19.366;2024-02-16T02:02:04;99629.44;;;5.61;93.06
80116;BME280;69423;47.608;19.366;2024-02-16T02:02:36;99623.16;;;5.62;93.17
80116;BME280;69423;47.608;19.366;2024-02-16T02:03:07;99626.81;;;5.61;92.92
80116;BME280;69423;47.608;19.366;2024-02-16T02:03:39;99611.75;;;5.61;93.30
80116;BME280;69423;47.608;19.366;2024-02-16T02:04:10;99618.59;;;5.64;93.09
80116;BME280;69423;47.608;19.366;2024-02-16T02:04:42;99613.69;;;5.59;93.52
80116;BME280;69423;47.608;19.366;2024-02-16T02:05:13;99617.75;;;5.63;93.08
80116;BME280;69423;47.608;19.366;2024-02-16T02:05:46;99613.16;;;5.65;93.32
80116;BME280;69423;47.608;19.366;2024-02-16T02:06:17;99615.81;;;5.65;93.38
80116;BME280;69423;47.608;19.366;2024-02-16T02:06:48;99618.59;;;5.64;93.11
80116;BME280;69423;47.608;19.366;2024-02-16T02:07:25;99609.38;;;5.58;93.27
80116;BME280;69423;47.608;19.366;2024-02-16T02:07:56;99623.16;;;5.62;93.24
80116;BME280;69423;47.608;19.366;2024-02-16T02:08:27;99616.22;;;5.61;93.27
80116;BME280;69423;47.608;19.366;2024-02-16T02:08:58;99617.19;;;5.60;93.24
80116;BME280;69423;47.608;19.366;2024-02-16T02:09:29;99623.28;;;5.60;93.30
80116;BME280;69423;47.608;19.366;2024-02-16T02:10:01;99615.34;;;5.60;93.40
80116;BME280;69423;47.608;19.366;2024-02-16T02:10:32;99621.50;;;5.61;93.13
80116;BME280;69423;47.608;19.366;2024-02-16T02:11:03;99617.06;;;5.61;93.08
80116;BME280;69423;47.608;19.366;2024-02-16T02:11:34;99616.06;;;5.62;93.16
80116;BME280;69423;47.608;19.366;2024-02-16T02:12:05;99615.81;;;5.65;92.94
80116;BME280;69423;47.608;19.366;2024-02-16T02:12:36;99616.50;;;5.67;92.97
80116;BME280;69423;47.608;19.366;2024-02-16T02:13:07;99612.88;;;5.68;93.08
80116;BME280;69423;47.608;19.366;2024-02-16T02:13:38;99611.09;;;5.69;92.60
80116;BME280;69423;47.608;19.366;2024-02-16T02:14:09;99615.53;;;5.68;92.86
80116;BME280;69423;47.608;19.366;2024-02-16T02:14:41;99612.88;;;5.68;92.61
80116;BME280;69423;47.608;19.366;2024-02-16T02:15:12;99612.88;;;5.68;92.92
80116;BME280;69423;47.608;19.366;2024-02-16T02:15:43;99617.34;;;5.68;92.85
80116;BME280;69423;47.608;19.366;2024-02-16T02:16:15;99614.81;;;5.66;92.95
80116;BME280;69423;47.608;19.366;2024-02-16T02:16:47;99613.75;;;5.69;92.91
80116;BME280;69423;47.608;19.366;2024-02-16T02:17:18;99610.38;;;5.67;93.04
80116;BME280;69423;47.608;19.366;2024-02-16T02:17:49;99608.69;;;5.66;92.88
80116;BME280;69423;47.608;19.366;2024-02-16T02:18:21;99619.28;;;5.66;93.02
80116;BME280;69423;47.608;19.366;2024-02-16T02:18:52;99612.47;;;5.63;93.46
80116;BME280;69423;47.608;19.366;2024-02-16T02:19:23;99617.75;;;5.63;93.42
80116;BME280;69423;47.608;19.366;2024-02-16T02:19:54;99613.28;;;5.64;92.84
80116;BME280;69423;47.608;19.366;2024-02-16T02:20:25;99616.94;;;5.63;92.74
80116;BME280;69423;47.608;19.366;2024-02-16T02:20:56;99608.69;;;5.66;92.58
80116;BME280;69423;47.608;19.366;2024-02-16T02:21:27;99608.44;;;5.69;92.88
80116;BME280;69423;47.608;19.366;2024-02-16T02:21:58;99611.78;;;5.71;92.94
80116;BME280;69423;47.608;19.366;2024-02-16T02:22:29;99609.84;;;5.73;92.29
80116;BME280;69423;47.608;19.366;2024-02-16T02:23:00;99608.44;;;5.69;92.05
80116;BME280;69423;47.608;19.366;2024-02-16T02:23:31;99616.09;;;5.72;92.25
80116;BME280;69423;47.608;19.366;2024-02-16T02:24:04;99609.84;;;5.73;91.85
80116;BME280;69423;47.608;19.366;2024-02-16T02:24:36;99608.75;;;5.76;91.75
80116;BME280;69423;47.608;19.366;2024-02-16T02:25:07;99608.03;;;5.74;91.75
80116;BME280;69423;47.608;19.366;2024-02-16T02:25:41;99604.81;;;5.70;92.24
80116;BME280;69423;47.608;19.366;2024-02-16T02:26:14;99608.16;;;5.72;92.26
80116;BME280;69423;47.608;19.366;2024-02-16T02:26:47;99609.84;;;5.73;92.14
80116;BME280;69423;47.608;19.366;2024-02-16T02:27:18;99605.81;;;5.69;92.31
80116;BME280;69423;47.608;19.366;2024-02-16T02:27:49;99605.09;;;5.67;92.09
80116;BME280;69423;47.608;19.366;2024-02-16T02:28:20;99601.47;;;5.68;91.73
80116;BME280;69423;47.608;19.366;2024-02-16T02:28:54;99605.22;;;5.65;91.71
80116;BME280;69423;47.608;19.366;2024-02-16T02:29:25;99599.81;;;5.67;92.12
80116;BME280;69423;47.608;19.366;2024-02-16T02:29:56;99598.13;;;5.66;91.95
80116;BME280;69423;47.608;19.366;2024-02-16T02:30:29;99611.63;;;5.63;91.87
80116;BME280;69423;47.608;19.366;2024-02-16T02:31:00;99606.88;;;5.57;92.22
80116;BME280;69423;47.608;19.366;2024-02-16T02:31:31;99605.34;;;5.64;92.20
80116;BME280;69423;47.608;19.366;2024-02-16T02:32:02;99604.53;;;5.63;92.53
80116;BME280;69423;47.608;19.366;2024-02-16T02:32:33;99610.66;;;5.64;92.23
80116;BME280;69423;47.608;19.366;2024-02-16T02:33:04;99599.81;;;5.67;92.07
80116;BME280;69423;47.608;19.366;2024-02-16T02:33:35;99605.34;;;5.64;91.91
80116;BME280;69423;47.608;19.366;2024-02-16T02:34:06;99603.00;;;5.61;92.33
80116;BME280;69423;47.608;19.366;2024-02-16T02:34:37;99605.34;;;5.64;92.27
80116;BME280;69423;47.608;19.366;2024-02-16T02:35:09;99607.88;;;5.65;91.90
80116;BME280;69423;47.608;19.366;2024-02-16T02:35:40;99602.00;;;5.62;92.04
80116;BME280;69423;47.608;19.366;2024-02-16T02:36:11;99603.00;;;5.61;91.37
80116;BME280;69423;47.608;19.366;2024-02-16T02:36:42;99603.41;;;5.56;91.91
80116;BME280;69423;47.608;19.366;2024-02-16T02:37:13;99591.00;;;5.57;91.88
80116;BME280;69423;47.608;19.366;2024-02-16T02:37:44;99606.72;;;5.58;91.69
80116;BME280;69423;47.608;19.366;2024-02-16T02:38:15;99598.25;;;5.55;91.66
80116;BME280;69423;47.608;19.366;2024-02-16T02:38:46;99611.47;;;5.55;91.40
80116;BME280;69423;47.608;19.366;2024-02-16T02:39:17;99609.38;;;5.58;92.04
80116;BME280;69423;47.608;19.366;2024-02-16T02:39:48;99607.72;;;5.57;92.03
80116;BME280;69423;47.608;19.366;2024-02-16T02:40:19;99609.06;;;5.52;92.30
80116;BME280;69423;47.608;19.366;2024-02-16T02:40:50;99612.72;;;5.51;91.71
80116;BME280;69423;47.608;19.366;2024-02-16T02:41:21;99605.03;;;5.47;91.96
80116;BME280;69423;47.608;19.366;2024-02-16T02:41:52;99614.66;;;5.48;91.52
80116;BME280;69423;47.608;19.366;2024-02-16T02:42:23;99607.81;;;5.46;91.85
80116;BME280;69423;47.608;19.366;2024-02-16T02:42:54;99617.28;;;5.48;91.42
80116;BME280;69423;47.608;19.366;2024-02-16T02:43:25;99620.63;;;5.51;91.25
80116;BME280;69423;47.608;19.366;2024-02-16T02:43:56;99609.22;;;5.50;91.95
80116;BME280;69423;47.608;19.366;2024-02-16T02:44:27;99612.00;;;5.48;91.83
80116;BME280;69423;47.608;19.366;2024-02-16T02:44:59;99612.97;;;5.47;92.21
80116;BME280;69423;47.608;19.366;2024-02-16T02:45:30;99606.13;;;5.45;92.19
80116;BME280;69423;47.608;19.366;2024-02-16T02:46:01;99609.78;;;5.44;91.69